Sho Ito

Скаут - Kashima Antlers
20 Янв 2028
Четверг
Продолжить

Характер

Адаптивность (15) Амбиции (17) Скандальность (8) Верность (18) Стрессоустойчивость (5) Профессионализм (9) Благородство (1) Темперамент (19)

Профиль

Стиль управления Демократичный
Лицензия Национальная B
Решительность 6
Управление людьми 4
Мотивация 5
Дисциплина 11
Удовлетворённость
100%
Усталость
0%
Должность Скаут
Зарплата 48.6K в нед.
Контракт 14.03.2028

Производительность

Поведение Хорошее
Эффективность тренировок
49%
Развитие игроков
30%
Профилактика травм
65%
Тактическая реализация
50%

Недавние события

Рекомендовал трансферную цель только что
Рекомендовал трансферную цель только что
Рекомендовал трансферную цель только что
Рекомендовал трансферную цель только что
Рекомендовал трансферную цель только что
Участвовал в селекционном совещании только что
Начаты переговоры по контракту только что
Проходит курсы повышения квалификации только что

Текущее наблюдение

339
Игрок Клуб Статус Способность Уверенность Наблюдений Последнее наблюдение Последний голос
Kota Tawaratsumida Racing Genk Отчёт готов 133 / 136 66% 1 17.01.2028 За
Yuto Ozeki Yokohama F. Marinos Активный 132 / 132 40% 4 05.01.2028 -
Breno Bidon Corinthians Активный 128 / 133 40% 2 05.01.2028 -
Kobbie Mainoo Leicester City Активный 157 / 162 40% 2 05.01.2028 -
Mao Hosoya Everton Переговоры 134 / 135 67% 1 05.01.2028 -
Nicolás Fernández Mercau Independiente Активный 134 / 134 90% 1 05.01.2028 За
Tojiro Kubo Kashiwa Reysol Активный 137 / 131 40% 2 04.01.2028 -
Zian Flemming Ipswich Town Активный 141 / 141 40% 8 04.01.2028 -
Callum O'Hare Sheffield United Активный 137 / 136 40% 4 04.01.2028 -
Erick Pulga Bahia Активный 129 / 127 40% 1 04.01.2028 -
Yuma Suzuki Urawa Reds Активный 138 / 141 40% 1 04.01.2028 -
Jayden Danns Wigan Athletic Активный 142 / 138 40% 1 04.01.2028 -
Manuel Ospina Cortulua Активный 138 / 132 40% 6 03.01.2028 -
Yota Komi Kashiwa Reysol Активный 123 / 128 40% 8 03.01.2028 Наблюдать
Ferreirinha Sport Recife Активный 127 / 124 40% 6 03.01.2028 -
Borja Mayoral Getafe Активный 142 / 142 40% 3 03.01.2028 -
Luca Koleosho Paris FC Активный 137 / 135 40% 1 03.01.2028 -
Liam Delap Nottingham Forest Активный 148 / 157 40% 1 03.01.2028 -
Hirokazu Ishihara FC Tokyo Активный 135 / 137 40% 2 01.01.2028 -
Mateo Cassierra Atlético Mineiro Активный 135 / 130 40% 10 01.01.2028 -
Ez Abde Girona Активный 153 / 153 40% 2 01.01.2028 -
Kimito Nono Sanfrecce Hiroshima Активный 124 / 136 40% 1 01.01.2028 -
Johan Manzambi Newcastle United Активный 144 / 151 40% 5 31.12.2027 -
Cristian Graciano Junior Активный 112 / 117 40% 2 31.12.2027 -
Samuel Gidi FC Cincinnati Активный 118 / 127 40% 2 31.12.2027 -
Mateo Castillo Millonarios Активный 129 / 123 40% 2 31.12.2027 -
Danilo Boza Fluminense Активный 132 / 123 40% 2 31.12.2027 -
Alfredo Giraldo La Equidad Активный 133 / 134 40% 1 31.12.2027 -
Emmanuel Sabbi Vancouver Whitecaps Активный 127 / 120 40% 4 30.12.2027 -
Louis Munteanu DC United Активный 141 / 126 40% 5 30.12.2027 -
Fábio Carvalho Sheffield Wednesday Активный 145 / 147 40% 2 30.12.2027 -
Toby Collyer West Bromwich Albion Активный 138 / 144 40% 1 29.12.2027 -
Jalen Neal CF Montreal Активный 130 / 120 40% 1 29.12.2027 -
Tetsushi Yamakawa Vissel Kobe Активный 128 / 128 40% 1 29.12.2027 -
Gustavo Marques Bragantino Активный 131 / 136 40% 1 29.12.2027 -
Matheus Bidu Corinthians Активный 128 / 131 40% 1 29.12.2027 -
Dejan Joveljić Seattle Sounders Активный 125 / 136 40% 4 27.12.2027 -
Riku Yamane Yokohama F. Marinos Активный 142 / 143 40% 4 27.12.2027 -
Yusuke Matsuo Esteghlal Активный 132 / 136 40% 2 27.12.2027 -
Ian Garguez Palestino Активный 108 / 113 40% 1 27.12.2027 -
Martín Ojeda Orlando City Активный 135 / 137 40% 7 26.12.2027 -
Breel Embolo Atlanta United FC Активный 135 / 134 40% 2 26.12.2027 -
Claudio Spinelli Vasco da Gama Активный 126 / 121 40% 3 25.12.2027 -
Negueba Mirassol Активный 131 / 126 40% 6 25.12.2027 -
Antony Alonso Deportivo Riestra Активный 118 / 123 40% 3 24.12.2027 -
Luciano Cosentino Wanderers Активный 119 / 123 40% 6 24.12.2027 -
Luca Langoni Colorado Rapids Активный 133 / 139 40% 3 24.12.2027 -
Sere Matsumura Shonan Bellmare Активный 122 / 115 40% 1 24.12.2027 -
Yusi Alavés Активный 132 / 137 40% 1 24.12.2027 -
Rodrigo Chagas Juventud Активный 117 / 121 40% 2 23.12.2027 -
Kévin Denkey FC Cincinnati Активный 123 / 125 40% 5 23.12.2027 -
Tomás Porra Barracas Central Активный 114 / 122 40% 4 23.12.2027 -
Alejo Veliz Bahia Активный 141 / 131 40% 2 23.12.2027 -
Samuel Lucero Defensa y Justicia Активный 119 / 128 40% 1 23.12.2027 -
Miguel Rodríguez Alavés Активный 139 / 134 40% 1 23.12.2027 -
Cheikh Sabaly Vancouver Whitecaps Активный 117 / 129 40% 8 22.12.2027 -
Wessam Abou Ali Columbus Crew Активный 134 / 123 40% 1 22.12.2027 -
José Hurtado Bragantino Активный 128 / 127 40% 1 22.12.2027 -
Shinnosuke Nakatani Gamba Osaka Активный 124 / 135 40% 1 22.12.2027 -
Gabriel Díaz Patronato Активный 109 / 111 40% 3 21.12.2027 -
Tobías Leiva Estudiantes Активный 116 / 122 40% 1 21.12.2027 -
Ivar Jenner Dewa United Активный 105 / 112 40% 1 21.12.2027 -
Jefry Zapata Danubio Активный 122 / 116 40% 2 20.12.2027 -
Brandon Vázquez Austin FC Активный 127 / 122 40% 3 20.12.2027 -
Asahi Uenaka Gamba Osaka Активный 126 / 121 65% 6 19.12.2027 За
Erison Kawasaki Frontale Активный 127 / 134 40% 4 19.12.2027 -
Fabrício Bruno Cruzeiro Активный 137 / 133 40% 1 19.12.2027 -
Hayato Araki Sanfrecce Hiroshima Активный 131 / 130 40% 1 19.12.2027 -
Arthur Santos Активный 143 / 133 40% 1 19.12.2027 -
Igor Jesus Los Angeles Football Club Активный 123 / 119 40% 2 18.12.2027 -
Peter Langhoff Djurgarden Активный 116 / 121 40% 1 18.12.2027 -
Adnan Courtois KV Oostende Активный 148 / 142 40% 4 17.12.2027 -
Mohamed-Ali Cho Hull City Активный 146 / 138 40% 4 17.12.2027 -
Tadeo Allende Inter Miami CF Активный 121 / 122 40% 5 17.12.2027 -
Koki Ogawa Jubilo Iwata Активный 124 / 117 40% 1 17.12.2027 -
Youssef En-Nesyri Al-Ittihad Активный 144 / 154 40% 1 17.12.2027 -
Alexander Díaz Deportivo Riestra Активный 128 / 116 40% 4 16.12.2027 -
Bruno Gomes Internacional Активный 133 / 128 40% 1 16.12.2027 -
Renan Lodi Atlético Mineiro Активный 140 / 135 40% 1 16.12.2027 -
Asahi Sasaki Kawasaki Frontale Активный 132 / 133 40% 1 16.12.2027 -
Mbekezeli Mbokazi Chicago Fire Активный 126 / 131 40% 8 15.12.2027 -
Brooke Norton-Cuffy Inter Miami CF Активный 131 / 133 40% 2 15.12.2027 -
Philippe Ndinga Philadelphia Union Активный 118 / 125 40% 4 14.12.2027 -
Arthur Cabral Botafogo Активный 137 / 131 40% 2 14.12.2027 -
Femi Seriki Sheffield United Активный 131 / 138 40% 1 14.12.2027 -
Agustín Anello Philadelphia Union Активный 131 / 124 40% 6 13.12.2027 -
Juan Pablo Córdoba Gimnasia y Esgrima Активный 112 / 114 40% 2 13.12.2027 -
Maizon Rodríguez Unión de Santa Fe Активный 123 / 120 40% 1 13.12.2027 -
Ignacio Perruzzi San Lorenzo Активный 133 / 132 40% 1 13.12.2027 -
Teboho Mokoena Independiente Активный 142 / 131 40% 1 12.12.2027 -
Axel Frugone Defensor Sporting Активный 120 / 120 40% 1 12.12.2027 -
Fredrik Sjøvold Bodo/Glimt Активный 136 / 133 40% 1 12.12.2027 -
Andrés Ferrari Sint-Truiden Активный 120 / 125 40% 1 12.12.2027 -
John Kennedy Fluminense Активный 125 / 131 40% 1 11.12.2027 -
João Klauss LA Galaxy Активный 136 / 122 40% 1 11.12.2027 -
Iván Romero Levante Активный 138 / 142 40% 1 10.12.2027 -
Ruben van Bommel Ferencvaros Активный 133 / 139 40% 2 09.12.2027 -
Braian Aranda Agropecuario Argentino Активный 117 / 114 40% 4 09.12.2027 -
Duncan McGuire Houston Dynamo Активный 125 / 126 40% 6 09.12.2027 -
Leonardo Campana New England Revolution Активный 120 / 131 40% 1 09.12.2027 -
Lucas Villalba Botafogo Активный 125 / 122 40% 1 09.12.2027 -
Kein Sato FC Tokyo Активный 134 / 139 40% 4 08.12.2027 -
Yuta Goke Vissel Kobe Активный 116 / 129 40% 4 08.12.2027 -
Gonzalo Fulham Активный 147 / 151 40% 5 06.12.2027 -
Armindo Sieb Los Angeles Football Club Активный 131 / 130 40% 9 06.12.2027 -
Luca Martínez Dupuy Godoy Cruz Активный 124 / 125 40% 4 06.12.2027 -
Levi Garcia Spartak Moscow Активный 144 / 128 40% 2 06.12.2027 -
Williams Manyama SuperSport United Активный 123 / 128 40% 2 05.12.2027 -
Fernando Álvarez Deportivo Cali Активный 114 / 113 40% 2 05.12.2027 -
Alan Velasco Boca Juniors Активный 134 / 133 40% 6 05.12.2027 -
Sead Hakšabanović Malmo FF Активный 127 / 120 40% 4 02.12.2027 -
Alejo Cruz Juventud Активный 127 / 124 40% 1 01.12.2027 -
Nicolás Romero Minnesota United FC Активный 133 / 125 40% 1 27.11.2027 -
Mateo Mendoza Godoy Cruz Активный 135 / 129 40% 1 27.11.2027 -
Ralph Orquin Seattle Sounders Активный 129 / 123 40% 1 24.11.2027 -
Edwuin Cetré Estudiantes Активный 129 / 128 40% 2 22.11.2027 -
Sam Surridge Nashville SC Активный 124 / 124 40% 1 22.11.2027 -
Mutsuki Kato Sanfrecce Hiroshima Активный 138 / 131 40% 6 21.11.2027 -
Alexis Cuello San Lorenzo Активный 125 / 125 40% 2 21.11.2027 -
Rafael Navarro St. Louis CITY SC Активный 118 / 131 40% 3 20.11.2027 -
Bénie Traoré New York City Активный 130 / 121 40% 3 20.11.2027 -
Alejandro Piedrahita Tigres Активный 124 / 125 40% 1 20.11.2027 -
Daiya Tono Yokohama F. Marinos Активный 124 / 128 40% 5 19.11.2027 -
Tomás Jacob Atlanta United FC Активный 124 / 125 40% 2 19.11.2027 -
Valentin Vidal Union Espanola Активный 110 / 110 40% 1 19.11.2027 -
Francisco Facello Chacarita Juniors Активный 109 / 111 40% 1 19.11.2027 -
Morgan Guilavogui Real Salt Lake Активный 137 / 122 40% 3 16.11.2027 -
Diego García Malmo FF Активный 125 / 123 40% 3 15.11.2027 -
Tomás Chancalay Minnesota United FC Активный 125 / 118 40% 2 12.11.2027 -
Paulos Abraham Hammarby Активный 121 / 122 40% 3 11.11.2027 -
Mathias Tønnessen Tromso Активный 115 / 114 40% 1 10.11.2027 -
Justo Giani Universidad Catolica Активный 129 / 119 40% 2 05.11.2027 -
Daniel Herrera San Lorenzo Активный 115 / 125 40% 1 03.11.2027 -
Noah Persson Hammarby Активный 130 / 129 40% 1 03.11.2027 -
Nəriman Axundzadə Columbus Crew Активный 128 / 119 40% 2 30.10.2027 -
Jonatan Torres Cerro Porteno Активный 125 / 123 40% 3 21.10.2027 -
Kerwin Vargas Seattle Sounders Активный 117 / 126 40% 3 20.10.2027 -
Santiago González Tigre Активный 127 / 127 40% 2 17.10.2027 -
Morrison Agyemang Charlotte Football Club Активный 127 / 113 40% 1 14.10.2027 -
Josh Sargent Toronto FC Активный 139 / 130 40% 4 11.10.2027 -
Elías Báez Atlanta United FC Активный 127 / 126 40% 3 09.10.2027 -
Sondre Auklend Bodo/Glimt Активный 120 / 138 40% 1 30.09.2027 -
Joel Poiso Penarol Активный 107 / 119 40% 1 29.09.2027 -
Hayato Tanaka Kashiwa Reysol Активный 120 / 126 40% 1 29.09.2027 -
Valentín Serrano Arsenal Активный 106 / 109 40% 1 26.09.2027 -
Max Fenger IFK Goteborg Активный 120 / 125 40% 2 21.09.2027 -
Ilay Feingold New England Revolution Активный 117 / 114 40% 1 19.09.2027 -
Federico Girotti Alianza Lima Активный 122 / 125 40% 1 16.09.2027 -
Maurice Malone Minnesota United FC Активный 116 / 131 40% 1 12.09.2027 -
Alexander Aravena Portland Timbers Активный 134 / 135 40% 1 11.09.2027 -
José Mercado Union Magdalena Активный 114 / 111 40% 1 08.09.2027 -
Jhojan Torres Santa Fe Активный 118 / 124 40% 1 08.09.2027 -
Hijiri Kato Omiya Ardija Упущен 127 / 127 69% 1 24.07.2027 За
Ryoya Yamashita Gamba Osaka Активный 136 / 122 69% 1 23.07.2027 За
Pedro de la Vega FC Dallas Активный 133 / 134 66% 1 22.07.2027 За
Keinan Davis Udinese Активный 138 / 132 40% 3 21.07.2027 -
Riley Owen Trento Активный 106 / 110 40% 3 21.07.2027 -
Ahmed Kutucu Konyaspor Активный 119 / 133 40% 2 21.07.2027 -
Simón Pinto Palestino Активный 99 / 101 40% 1 21.07.2027 -
Tiago Freitas Benfica Активный 111 / 118 40% 3 20.07.2027 -
Andrea Pinamonti Lazio Активный 148 / 139 40% 8 20.07.2027 -
Martim Cunha Porto Активный 108 / 111 40% 2 20.07.2027 -
Sam Bell Bristol City Активный 123 / 124 40% 1 20.07.2027 -
Elijah Adebayo Luton Town Активный 128 / 126 40% 5 19.07.2027 -
Ilyas Ansah Hull City Активный 136 / 139 40% 4 19.07.2027 -
Dom Ballard Leyton Orient Активный 128 / 123 40% 3 19.07.2027 -
Will Lankshear Middlesbrough Активный 124 / 128 40% 10 18.07.2027 -
Zane Albarus Cambridge United Активный 93 / 108 40% 2 18.07.2027 -
Eddy Kouadio Crotone Активный 107 / 107 40% 1 18.07.2027 -
Tyrese Campbell Sheffield United Активный 138 / 124 40% 7 17.07.2027 -
Soungoutou Magassa West Ham United Активный 134 / 137 40% 3 17.07.2027 -
Kane Wilson Milton Keynes Dons Активный 113 / 111 40% 2 17.07.2027 -
Nobel Mendy Hull City Активный 133 / 140 40% 1 17.07.2027 -
Daniel Vernattus Metalist Активный 96 / 90 40% 2 16.07.2027 -
Cheveyo Tsawa Club Brugge Активный 119 / 125 40% 1 16.07.2027 -
Gonçalo Oliveira Benfica Активный 116 / 118 40% 3 15.07.2027 -
Zeki Amdouni Burnley Активный 135 / 139 40% 3 14.07.2027 -
Armando Broja Burnley Активный 141 / 136 40% 2 14.07.2027 -
Stefanos Tzimas Brighton Активный 144 / 146 40% 1 14.07.2027 -
Patson Daka Leicester City Активный 126 / 124 40% 7 13.07.2027 -
Caleb Yirenkyi Coventry City Активный 135 / 148 40% 4 13.07.2027 -
Darlin Yongwa Norwich City Активный 134 / 130 40% 3 12.07.2027 -
Jens Odgaard Bologna Активный 141 / 136 40% 4 12.07.2027 -
Dylan Lawlor Cardiff City Активный 119 / 125 40% 3 12.07.2027 -
Cristian Shpendi Cesena Активный 133 / 136 40% 1 12.07.2027 -
Alpha Touré FC Metz Активный 112 / 129 40% 1 12.07.2027 -
Tobias Slotsager Casertana Активный 115 / 116 40% 1 12.07.2027 -
Bosun Lawal Stoke City Активный 134 / 125 40% 1 12.07.2027 -
Josh Edwards Charlton Athletic Активный 120 / 129 40% 1 12.07.2027 -
Ethan Pye Stockport County Активный 119 / 119 40% 3 10.07.2027 -
Barış Alper Yılmaz Galatasaray Активный 147 / 157 40% 2 10.07.2027 -
Bobby Thomas Coventry City Активный 132 / 137 40% 1 10.07.2027 -
Archie Collins Peterborough United Активный 123 / 116 40% 1 10.07.2027 -
Rivaldo Grobler Free State Stars Активный 99 / 103 40% 1 09.07.2027 -
Lucas Høgsberg RC Strasbourg Активный 138 / 142 40% 1 09.07.2027 -
Aidomo Emakhu Oxford United Активный 130 / 127 40% 1 07.07.2027 -
Karlan Grant West Bromwich Albion Активный 125 / 119 40% 1 07.07.2027 -
Santiago Pierotti Lecce Активный 138 / 131 40% 1 07.07.2027 -
Matteo Rover Reggiana Активный 118 / 115 40% 1 06.07.2027 -
Alfie Doughty Millwall Активный 131 / 129 40% 2 05.07.2027 -
Pablo Felipe West Ham United Активный 143 / 141 40% 3 05.07.2027 -
Lewis Morgan SuperSport United Активный 126 / 117 40% 4 05.07.2027 -
Tom Cannon Sheffield United Активный 127 / 134 40% 4 03.07.2027 -
Yousef Salech Cardiff City Активный 129 / 131 40% 2 03.07.2027 -
Oh Hyeon-Gyu Besiktas Активный 114 / 134 40% 2 02.07.2027 -
Nicolò Zaniolo Udinese Активный 152 / 138 40% 3 01.07.2027 -
Bernardo Lima Porto Активный 95 / 112 40% 4 01.07.2027 -
Lorent Tolaj Plymouth Argyle Активный 119 / 117 40% 2 30.06.2027 -
Dwight McNeil Crystal Palace Активный 146 / 140 40% 1 30.06.2027 -
Cameron Archer Southampton Активный 136 / 124 40% 6 29.06.2027 -
Leo Castledine Middlesbrough Активный 127 / 137 40% 3 29.06.2027 -
Jofre Torrents Ajax Активный 132 / 129 40% 2 29.06.2027 -
Daniel Kelly Oxford United Активный 111 / 126 40% 1 29.06.2027 -
Moussa Dembélé CR Belouizdad Активный 122 / 137 40% 4 28.06.2027 -
Che Adams Torino Активный 150 / 144 40% 4 27.06.2027 -
Richard Koné Queens Park Rangers Активный 130 / 128 40% 1 27.06.2027 -
Davide Bartesaghi AC Milan Активный 136 / 138 40% 3 25.06.2027 -
Sebastián Ramírez Jaguares Активный 103 / 117 40% 2 25.06.2027 -
Joe Gelhardt Hull City Активный 132 / 130 40% 2 24.06.2027 -
Romelu Castagne KV Oostende Активный 135 / 143 40% 1 24.06.2027 -
Ross Stewart Southampton Активный 133 / 131 40% 3 23.06.2027 -
Aune Heggebø West Bromwich Albion Активный 136 / 132 40% 4 22.06.2027 -
Matvey Kislyak CSKA Moscow Активный 132 / 147 40% 4 22.06.2027 -
Joel McGregor Swindon Town Активный 87 / 95 40% 5 22.06.2027 -
Tommy Conway Middlesbrough Активный 138 / 126 40% 2 21.06.2027 -
Christ Inao Oulaï Fiorentina Активный 138 / 137 40% 1 21.06.2027 -
Petar Musa Adana Demirspor Активный 148 / 134 40% 6 18.06.2027 -
Sascha Britschgi Padova Активный 117 / 130 40% 4 18.06.2027 -
Joel Ezra Enyimba Активный 97 / 94 40% 1 18.06.2027 -
Adam Wharton Crystal Palace Активный 150 / 150 40% 1 16.06.2027 -
Hayden Carter Blackburn Rovers Активный 129 / 126 40% 1 16.06.2027 -
Nathan Collins Brentford Активный 147 / 146 40% 1 16.06.2027 -
Jan Bürger Gillingham Активный 113 / 124 40% 4 15.06.2027 -
Kazunari Kita Real Sociedad Активный 92 / 108 40% 1 15.06.2027 -
Christos Mouzakitis Hull City Активный 131 / 135 40% 7 14.06.2027 -
Kristoffer Lund Birmingham Активный 128 / 135 40% 2 14.06.2027 -
Ilario Monterisi Frosinone Активный 133 / 130 40% 1 14.06.2027 -
Nikola Vlašić Torino Активный 148 / 147 40% 1 10.06.2027 -
Leandro Martins Benfica Активный 95 / 99 40% 3 09.06.2027 -
Morgan Whittaker Middlesbrough Активный 131 / 132 40% 4 08.06.2027 -
Rey Manaj Sivasspor Активный 121 / 128 40% 2 08.06.2027 -
Florentino Luís Ipswich Town Активный 145 / 140 40% 4 07.06.2027 -
Pedro Porro Tottenham Активный 156 / 147 40% 1 07.06.2027 -
Nicolò Tresoldi Club Brugge Активный 127 / 134 40% 3 05.06.2027 -
Yoane Wissa Newcastle United Активный 138 / 143 40% 1 04.06.2027 -
Pelle Mattsson Norwich City Активный 131 / 129 40% 1 04.06.2027 -
Finley McAllister Grimsby Town Активный 97 / 95 40% 2 03.06.2027 -
Harry Clarke Preston Активный 136 / 126 40% 1 30.05.2027 -
Mirko Topić Norwich City Активный 117 / 115 40% 2 29.05.2027 -
Daniel Tonoli Modena Активный 117 / 127 40% 2 29.05.2027 -
Luis Vázquez Birmingham Активный 129 / 125 40% 2 28.05.2027 -
Jacob Greaves Ipswich Town Активный 135 / 136 40% 2 27.05.2027 -
James Morris Leyton Orient Активный 121 / 118 40% 1 27.05.2027 -
Harvey White Stevenage Активный 124 / 112 40% 1 27.05.2027 -
Nuno Tavares Lazio Активный 147 / 141 40% 1 26.05.2027 -
Jack Currie Oxford United Активный 117 / 123 40% 1 26.05.2027 -
Edoardo Bove Watford Активный 125 / 134 40% 1 26.05.2027 -
Noah Sadiki Sunderland Активный 137 / 149 40% 4 25.05.2027 -
Lewis Ferguson Bologna Активный 146 / 145 40% 3 24.05.2027 -
Zak Swanson Bradford City Активный 120 / 119 40% 2 24.05.2027 -
Derry Murkin Derby County Активный 127 / 132 40% 1 24.05.2027 -
Kerem Aktürkoğlu Fenerbahce Активный 154 / 143 40% 6 23.05.2027 -
Keagan Phiri Platinum Stars Активный 110 / 108 40% 2 20.05.2027 -
Hamish Douglas Grimsby Town Активный 98 / 99 40% 2 17.05.2027 -
Keagan Tau Ajax Cape Town Активный 101 / 108 40% 1 16.05.2027 -
Luke McNally Bristol City Активный 126 / 133 40% 2 15.05.2027 -
Callum Doyle Wrexham Активный 134 / 129 40% 1 15.05.2027 -
Dávid Strelec Middlesbrough Активный 142 / 142 40% 1 13.05.2027 -
Matías Gómez Granada Активный 113 / 117 40% 2 12.05.2027 -
Shea Charles Southampton Активный 138 / 132 40% 2 11.05.2027 -
Wilson Isidor Sunderland Активный 130 / 137 40% 3 11.05.2027 -
Dany Mota Monza Активный 139 / 133 40% 1 09.05.2027 -
Taras Mykhavko Dynamo Kyiv Активный 132 / 115 40% 1 05.05.2027 -
Konan N'Dri Lecce Активный 121 / 131 40% 1 05.05.2027 -
Mateo Pellegrino Fiorentina Активный 139 / 142 40% 1 02.05.2027 -
Oli McBurnie Hull City Активный 134 / 140 40% 3 01.05.2027 -
Adriano Bertaccini Anderlecht Активный 134 / 124 40% 1 30.04.2027 -
Bali Mumba Huddersfield Town Активный 109 / 114 40% 1 30.04.2027 -
Percy Jali Free State Stars Активный 84 / 100 40% 1 29.04.2027 -
Will Fish Cardiff City Активный 118 / 124 40% 1 25.04.2027 -
Lucas Da Cunha Como Активный 146 / 139 40% 1 25.04.2027 -
Welington Southampton Активный 131 / 136 40% 4 20.04.2027 -
Habib Diarra Sunderland Активный 141 / 137 40% 2 20.04.2027 -
Tiago Djaló Besiktas Активный 127 / 135 40% 1 20.04.2027 -
Darryl Bakola Padova Активный 108 / 114 40% 1 18.04.2027 -
Willem Geubbels Lecce Активный 132 / 136 40% 1 13.04.2027 -
Juan Mosquera Sheffield Wednesday Активный 133 / 121 40% 2 09.04.2027 -
Max Bird Birmingham Активный 139 / 135 40% 1 09.04.2027 -
Ernie Weaver AFC Wimbledon Активный 103 / 124 40% 1 09.04.2027 -
Adam Bakoune Ospitaletto Активный 105 / 105 40% 1 09.04.2027 -
Eduardo Felicíssimo Sporting CP Активный 100 / 109 40% 1 07.04.2027 -
Mandla Erasmus SuperSport United Активный 129 / 112 40% 2 06.04.2027 -
Luka Jović AEK Активный 148 / 135 40% 1 06.04.2027 -
Keane Lewis-Potter Brentford Активный 146 / 139 40% 1 04.04.2027 -
Lewis Bate Stockport County Активный 115 / 128 40% 1 01.04.2027 -
Jacques Ekomié Wrexham Активный 137 / 132 40% 1 01.04.2027 -
Ethan Galbraith Swansea City Активный 133 / 140 40% 1 01.04.2027 -
Emmanuel Boateng Hapoel Tel Aviv Активный 131 / 128 40% 1 30.03.2027 -
Noah Okafor Leeds United Активный 144 / 141 40% 1 30.03.2027 -
Bamba Dieng Crvena Zvezda Активный 119 / 140 40% 1 26.03.2027 -
Ilay Camara Anderlecht Активный 133 / 136 40% 1 23.03.2027 -
Mattéo Guendouzi Fenerbahce Активный 152 / 147 40% 1 21.03.2027 -
Michael Kayode Brentford Активный 156 / 156 40% 1 21.03.2027 -
Luciano Gondou CSKA Moscow Активный 144 / 140 40% 1 19.03.2027 -
Sondre Langås Derby County Активный 131 / 120 40% 1 19.03.2027 -
Leif Davis Ipswich Town Активный 143 / 132 40% 1 04.01.2027 -
Jordan Beyer Burnley Активный 143 / 129 40% 1 02.01.2027 -
Ronnie Edwards Queens Park Rangers Активный 127 / 123 40% 1 02.01.2027 -
Tom Fellows Southampton Активный 129 / 136 40% 2 29.12.2026 -
Lukáš Červ Viktoria Plzen Активный 134 / 124 40% 1 27.12.2026 -
Jack McGlynn Stoke City Активный 125 / 122 40% 1 25.12.2026 -
Scott Twine Bristol City Активный 132 / 131 40% 1 24.12.2026 -
Ben Ahmed Kohili Paradou Активный 94 / 116 40% 1 23.12.2026 -
Gustavo Mantuan Zenit Активный 122 / 135 40% 1 23.12.2026 -
Finn Azaz Southampton Активный 124 / 119 40% 2 21.12.2026 -
Sayed Abu Farchi Maccabi Tel Aviv Активный 121 / 126 40% 1 20.12.2026 -
Leon Grgić Sturm Graz Активный 116 / 138 40% 1 18.12.2026 -
Marquinhos Spartak Moscow Активный 145 / 141 40% 1 17.12.2026 -
Isaac Price West Bromwich Albion Активный 124 / 119 40% 1 16.12.2026 -
Iwan Morgan Grimsby Town Активный 114 / 107 40% 1 15.12.2026 -
Mateus Mané Manchester United Активный 133 / 146 40% 1 15.12.2026 -
Jack Rudoni Coventry City Активный 141 / 142 40% 2 13.12.2026 -
Suleiman Camara Slovan Bratislava Активный 131 / 130 40% 1 13.12.2026 -
Danil Glebov Dinamo Moscow Активный 132 / 119 40% 2 11.12.2026 -
Alagie Wally Veres Активный 98 / 97 40% 1 09.12.2026 -
Ante Brekalo Zadar Активный 109 / 123 40% 1 09.12.2026 -
Eric Meza Estudiantes Активный 119 / 128 40% 1 21.11.2026 -
Bryan Ramírez FC Cincinnati Активный 126 / 113 40% 1 19.11.2026 -
Antonios Papadopoulos Lugano Активный 123 / 136 40% 1 12.11.2026 -
Shuto Nakano Sanfrecce Hiroshima Активный 134 / 134 40% 1 12.11.2026 -
Vicente Poggi Godoy Cruz Активный 125 / 115 40% 1 08.11.2026 -
César Ibáñez Huracán Активный 121 / 126 40% 1 08.11.2026 -
Rodrigo Huescas FC Copenhagen Активный 144 / 118 40% 1 08.11.2026 -
Karel Spáčil Viktoria Plzen Активный 126 / 143 40% 2 06.11.2026 -
Sota Miura Kawasaki Frontale Активный 126 / 131 40% 1 06.11.2026 -
Leandro Lozano Boca Juniors Активный 133 / 115 40% 1 06.11.2026 -
Ezekiel Kwame Alladoh Philadelphia Union Активный 125 / 127 40% 1 09.09.2026 -
Youssoufa Moukoko FC Copenhagen Активный 119 / 138 40% 1 07.09.2026 -
Kosei Suwama Yokohama F. Marinos Активный 116 / 98 62% 1 17.08.2026 За